createdAt,value
2023-02-16T00:01:53.711Z,-2.52
2023-02-16T00:04:27.747Z,-2.43
2023-02-16T00:06:55.207Z,-2.56
2023-02-16T00:09:22.976Z,-2.66
2023-02-16T00:12:08.738Z,-2.68
2023-02-16T00:14:36.713Z,-2.68
2023-02-16T00:17:04.386Z,-2.63
2023-02-16T00:19:42.080Z,-2.71
2023-02-16T00:22:08.948Z,-2.71
2023-02-16T00:24:35.559Z,-2.77
2023-02-16T00:27:02.458Z,-2.81
2023-02-16T00:29:34.268Z,-2.86
2023-02-16T00:32:03.619Z,-2.88
2023-02-16T00:34:35.911Z,-2.90
2023-02-16T00:37:05.352Z,-2.91
2023-02-16T00:39:32.287Z,-2.97
2023-02-16T00:42:03.019Z,-2.96
2023-02-16T00:44:48.100Z,-2.90
2023-02-16T00:47:17.653Z,-2.98
2023-02-16T00:49:44.440Z,-2.96
2023-02-16T00:52:27.550Z,-3.02
2023-02-16T00:54:54.008Z,-3.12
2023-02-16T00:57:20.608Z,-3.13
2023-02-16T00:59:49.377Z,-3.21
2023-02-16T01:02:15.905Z,-3.18
2023-02-16T01:04:42.638Z,-3.17
2023-02-16T01:07:32.070Z,-3.21
2023-02-16T01:10:17.253Z,-3.26
2023-02-16T01:12:43.706Z,-3.24
2023-02-16T01:15:14.322Z,-3.27
2023-02-16T01:17:41.253Z,-3.28
2023-02-16T01:20:16.582Z,-3.35
2023-02-16T01:22:43.113Z,-3.18
2023-02-16T01:25:10.124Z,-3.12
2023-02-16T01:27:38.477Z,-3.18
2023-02-16T01:30:07.162Z,-3.16
2023-02-16T01:32:33.886Z,-3.24
2023-02-16T01:35:00.327Z,-3.28
2023-02-16T01:37:26.798Z,-3.29
2023-02-16T01:39:53.270Z,-3.31
2023-02-16T01:42:38.419Z,-3.35
2023-02-16T01:45:14.064Z,-3.46
2023-02-16T01:47:54.721Z,-3.50
2023-02-16T01:50:24.613Z,-3.46
2023-02-16T01:52:58.656Z,-3.44
2023-02-16T01:55:37.844Z,-3.41
2023-02-16T01:58:32.647Z,-3.38
2023-02-16T02:00:59.033Z,-3.35
2023-02-16T02:03:49.845Z,-3.37
2023-02-16T02:06:20.385Z,-3.34
2023-02-16T02:08:54.008Z,-3.36
2023-02-16T02:11:26.569Z,-3.48
2023-02-16T02:14:05.808Z,-3.57
2023-02-16T02:16:32.456Z,-3.57
2023-02-16T02:18:58.892Z,-3.45
2023-02-16T02:22:02.344Z,-3.44
2023-02-16T02:24:40.735Z,-3.39
2023-02-16T02:27:15.891Z,-3.46
2023-02-16T02:30:19.198Z,-3.46
2023-02-16T02:33:03.971Z,-3.47
2023-02-16T02:35:41.328Z,-3.49
2023-02-16T02:38:15.508Z,-3.47
2023-02-16T02:40:55.479Z,-3.49
2023-02-16T02:43:22.132Z,-3.53
2023-02-16T02:45:56.061Z,-3.61
2023-02-16T02:48:22.732Z,-3.51
2023-02-16T02:51:22.619Z,-3.41
2023-02-16T02:54:21.920Z,-3.49
2023-02-16T02:57:16.086Z,-3.52
2023-02-16T03:00:07.307Z,-3.49
2023-02-16T03:02:37.166Z,-3.42
2023-02-16T03:05:07.010Z,-3.38
2023-02-16T03:07:47.522Z,-3.38
2023-02-16T03:10:39.144Z,-3.38
2023-02-16T03:13:11.492Z,-3.32
2023-02-16T03:15:38.805Z,-3.37
2023-02-16T03:18:26.145Z,-3.33
2023-02-16T03:21:11.805Z,-3.20
2023-02-16T03:23:59.048Z,-3.09
2023-02-16T03:26:45.741Z,-3.10
2023-02-16T03:29:21.448Z,-3.09
2023-02-16T03:31:49.900Z,-3.10
2023-02-16T03:34:18.486Z,-3.06
2023-02-16T03:36:47.665Z,-2.92
2023-02-16T03:39:15.560Z,-2.97
2023-02-16T03:41:49.895Z,-3.08
2023-02-16T03:44:16.818Z,-3.06
2023-02-16T03:46:43.504Z,-3.08
2023-02-16T03:49:10.098Z,-3.09
2023-02-16T03:51:36.831Z,-3.13
2023-02-16T03:54:03.570Z,-3.12
2023-02-16T03:56:30.017Z,-3.05
2023-02-16T03:58:56.640Z,-3.01
2023-02-16T04:01:23.317Z,-2.94
2023-02-16T04:03:49.896Z,-3.01
2023-02-16T04:06:16.430Z,-3.04
2023-02-16T04:08:42.997Z,-3.09
2023-02-16T04:11:27.713Z,-3.11
2023-02-16T04:13:54.302Z,-3.11
2023-02-16T04:16:20.882Z,-3.13
2023-02-16T04:18:47.382Z,-3.07
2023-02-16T04:21:13.871Z,-3.04
2023-02-16T04:23:40.944Z,-3.01
2023-02-16T04:26:07.418Z,-3.01
2023-02-16T04:28:33.896Z,-2.96
2023-02-16T04:31:00.490Z,-3.07
2023-02-16T04:33:27.047Z,-3.10
2023-02-16T04:35:53.555Z,-3.11
2023-02-16T04:38:20.063Z,-3.13
2023-02-16T04:40:46.499Z,-3.14
2023-02-16T04:43:13.033Z,-3.07
2023-02-16T04:45:39.501Z,-3.08
2023-02-16T04:48:06.118Z,-3.10
2023-02-16T04:50:32.617Z,-3.11
2023-02-16T04:52:59.145Z,-3.03
2023-02-16T04:55:25.627Z,-2.99
2023-02-16T04:57:52.137Z,-3.08
2023-02-16T05:00:19.282Z,-3.05
2023-02-16T05:02:45.945Z,-3.06
2023-02-16T05:05:12.418Z,-3.10
2023-02-16T05:07:38.928Z,-3.19
2023-02-16T05:10:06.862Z,-3.14
2023-02-16T05:12:51.984Z,-3.07
2023-02-16T05:15:18.569Z,-3.04
2023-02-16T05:17:45.137Z,-3.04
2023-02-16T05:20:12.436Z,-3.11
2023-02-16T05:22:39.349Z,-3.11
2023-02-16T05:25:07.246Z,-3.09
2023-02-16T05:27:33.774Z,-3.22
2023-02-16T05:30:00.332Z,-3.17
2023-02-16T05:32:27.038Z,-3.17
2023-02-16T05:34:53.637Z,-3.13
2023-02-16T05:37:20.198Z,-3.05
2023-02-16T05:39:46.878Z,-2.97
2023-02-16T05:42:13.448Z,-3.01
2023-02-16T05:44:39.961Z,-3.03
2023-02-16T05:47:06.438Z,-3.05
2023-02-16T05:49:32.910Z,-3.09
2023-02-16T05:51:59.380Z,-2.97
2023-02-16T05:54:26.132Z,-3.01
2023-02-16T05:56:53.273Z,-2.98
2023-02-16T05:59:20.022Z,-2.84
2023-02-16T06:01:50.615Z,-2.87
2023-02-16T06:04:18.624Z,-2.84
2023-02-16T06:06:45.200Z,-2.88
2023-02-16T06:09:12.007Z,-3.01
2023-02-16T06:11:39.103Z,-2.96
2023-02-16T06:14:11.755Z,-3.15
2023-02-16T06:16:41.988Z,-3.12
2023-02-16T06:19:09.348Z,-3.08
2023-02-16T06:21:36.221Z,-3.08
2023-02-16T06:24:03.427Z,-3.09
2023-02-16T06:26:29.907Z,-3.19
2023-02-16T06:28:56.995Z,-3.22
2023-02-16T06:31:25.038Z,-3.14
2023-02-16T06:33:52.745Z,-3.14
2023-02-16T06:36:20.317Z,-3.07
2023-02-16T06:38:46.829Z,-3.11
2023-02-16T06:41:13.315Z,-3.04
2023-02-16T06:43:39.809Z,-3.13
2023-02-16T06:46:06.611Z,-3.06
2023-02-16T06:48:33.266Z,-2.99
2023-02-16T06:50:59.808Z,-3.04
2023-02-16T06:53:26.396Z,-2.88
2023-02-16T06:55:52.934Z,-2.70
2023-02-16T06:58:19.502Z,-2.73
2023-02-16T07:00:46.408Z,-2.76
2023-02-16T07:03:12.970Z,-2.72
2023-02-16T07:05:39.426Z,-2.66
2023-02-16T07:08:06.086Z,-2.69
2023-02-16T07:10:43.923Z,-2.72
2023-02-16T07:13:16.030Z,-2.61
2023-02-16T07:15:42.498Z,-2.56
2023-02-16T07:18:08.977Z,-2.52
2023-02-16T07:20:35.451Z,-2.49
2023-02-16T07:23:01.982Z,-2.37
2023-02-16T07:25:28.690Z,-2.50
2023-02-16T07:27:55.253Z,-2.44
2023-02-16T07:30:22.256Z,-2.43
2023-02-16T07:32:48.849Z,-2.49
2023-02-16T07:35:15.308Z,-2.67
2023-02-16T07:37:41.817Z,-2.45
2023-02-16T07:40:08.747Z,-2.31
2023-02-16T07:42:35.348Z,-1.97
2023-02-16T07:45:01.925Z,-1.53
2023-02-16T07:47:28.385Z,-1.41
2023-02-16T07:49:54.872Z,-1.17
2023-02-16T07:52:21.379Z,-0.66
2023-02-16T07:54:47.866Z,-0.45
2023-02-16T07:57:14.344Z,-0.48
2023-02-16T07:59:41.232Z,-0.44
2023-02-16T08:02:07.727Z,-0.03
2023-02-16T08:04:34.616Z,0.09
2023-02-16T08:07:01.228Z,-0.33
2023-02-16T08:09:27.653Z,0.11
2023-02-16T08:11:54.092Z,0.67
2023-02-16T08:14:20.537Z,1.32
2023-02-16T08:16:47.044Z,1.58
2023-02-16T08:19:13.968Z,2.25
2023-02-16T08:21:40.540Z,2.72
2023-02-16T08:24:08.718Z,3.23
2023-02-16T08:26:43.103Z,3.25
2023-02-16T08:29:10.520Z,3.88
2023-02-16T08:31:38.377Z,3.49
2023-02-16T08:34:05.902Z,3.89
2023-02-16T08:36:35.226Z,4.40
2023-02-16T08:39:12.121Z,5.15
2023-02-16T08:41:39.221Z,5.14
2023-02-16T08:44:07.713Z,6.26
2023-02-16T08:46:35.808Z,6.27
2023-02-16T08:49:02.297Z,6.49
2023-02-16T08:51:32.054Z,6.70
2023-02-16T08:54:00.148Z,6.60
2023-02-16T08:56:27.558Z,6.56
2023-02-16T08:58:53.991Z,7.66
2023-02-16T09:01:20.489Z,7.96
2023-02-16T09:03:46.940Z,7.88
2023-02-16T09:06:15.528Z,7.88
2023-02-16T09:08:42.264Z,8.49
2023-02-16T09:11:12.701Z,9.10
2023-02-16T09:13:41.017Z,9.68
2023-02-16T09:16:12.635Z,9.60
2023-02-16T09:18:40.255Z,9.36
2023-02-16T09:21:11.005Z,10.07
2023-02-16T09:23:40.538Z,10.96
2023-02-16T09:26:09.609Z,11.59
2023-02-16T09:28:38.210Z,11.79
2023-02-16T09:31:12.784Z,12.18
2023-02-16T09:33:41.525Z,10.42
2023-02-16T09:36:09.856Z,8.54
2023-02-16T09:38:37.200Z,8.33
2023-02-16T09:41:26.965Z,9.72
2023-02-16T09:44:25.765Z,10.01
2023-02-16T09:46:55.113Z,10.87
2023-02-16T09:49:35.241Z,11.39
2023-02-16T09:52:42.126Z,11.99
2023-02-16T09:55:14.636Z,11.70
2023-02-16T09:58:05.684Z,12.77
2023-02-16T10:00:35.852Z,12.28
2023-02-16T10:03:41.370Z,12.13
2023-02-16T10:06:13.939Z,11.40
2023-02-16T10:09:00.464Z,12.51
2023-02-16T10:11:41.818Z,12.39
2023-02-16T10:14:25.029Z,13.04
2023-02-16T10:16:56.385Z,13.61
2023-02-16T10:19:38.406Z,14.31
2023-02-16T10:22:08.380Z,14.21
2023-02-16T10:24:46.986Z,15.51
2023-02-16T10:27:16.364Z,14.99
2023-02-16T10:29:43.011Z,15.07
2023-02-16T10:32:19.949Z,15.88
2023-02-16T10:35:01.499Z,15.47
2023-02-16T10:37:37.744Z,15.82
2023-02-16T10:40:27.531Z,15.22
2023-02-16T10:43:12.559Z,14.73
2023-02-16T10:45:55.782Z,16.00
2023-02-16T10:48:23.635Z,15.78
2023-02-16T10:51:04.683Z,17.07
2023-02-16T10:53:31.321Z,16.67
2023-02-16T10:55:58.722Z,16.83
2023-02-16T10:58:40.200Z,16.36
2023-02-16T11:01:09.732Z,15.81
2023-02-16T11:03:44.754Z,15.66
2023-02-16T11:06:18.807Z,14.59
2023-02-16T11:08:56.705Z,15.50
2023-02-16T11:11:37.685Z,15.31
2023-02-16T11:14:21.886Z,15.49
2023-02-16T11:16:49.307Z,16.16
2023-02-16T11:19:22.133Z,16.62
2023-02-16T11:21:58.815Z,17.16
2023-02-16T11:24:34.688Z,17.64
2023-02-16T11:27:13.712Z,16.86
2023-02-16T11:29:40.925Z,18.17
2023-02-16T11:32:09.597Z,18.02
2023-02-16T11:34:49.201Z,18.13
2023-02-16T11:37:27.673Z,18.19
2023-02-16T11:40:02.003Z,17.26
2023-02-16T11:42:44.605Z,17.86
2023-02-16T11:45:22.176Z,18.38
2023-02-16T11:47:53.906Z,17.55
2023-02-16T11:50:23.246Z,16.74
2023-02-16T11:52:57.369Z,18.45
2023-02-16T11:55:36.057Z,17.25
2023-02-16T11:58:20.256Z,17.96
2023-02-16T12:00:59.682Z,17.09
2023-02-16T12:03:40.002Z,17.24
2023-02-16T12:06:33.653Z,18.26
2023-02-16T12:09:36.770Z,18.07
2023-02-16T12:12:31.496Z,15.79
2023-02-16T12:15:29.615Z,16.63
2023-02-16T12:18:05.308Z,17.28
2023-02-16T12:20:50.357Z,16.06
2023-02-16T12:23:38.325Z,17.15
2023-02-16T12:26:36.644Z,15.60
2023-02-16T12:29:08.844Z,15.09
2023-02-16T12:32:06.824Z,15.19
2023-02-16T12:34:33.377Z,15.96
2023-02-16T12:37:21.241Z,15.87
2023-02-16T12:40:15.049Z,16.66
2023-02-16T12:43:18.394Z,17.40
2023-02-16T12:45:46.288Z,16.37
2023-02-16T12:48:40.328Z,17.78
2023-02-16T12:51:13.429Z,18.63
2023-02-16T12:53:49.169Z,18.95
2023-02-16T12:56:28.410Z,19.00
2023-02-16T12:59:05.253Z,20.47
2023-02-16T13:01:35.630Z,21.53
2023-02-16T13:04:34.456Z,22.21
2023-02-16T13:07:26.346Z,22.72
2023-02-16T13:10:21.677Z,21.72
2023-02-16T13:13:00.121Z,19.99
2023-02-16T13:15:34.256Z,19.54
2023-02-16T13:18:12.466Z,19.86
2023-02-16T13:20:48.580Z,19.14
2023-02-16T13:23:23.758Z,17.67
2023-02-16T13:26:01.089Z,16.88
2023-02-16T13:28:37.084Z,15.78
2023-02-16T13:31:12.553Z,15.30
2023-02-16T13:34:26.885Z,14.82
2023-02-16T13:37:02.176Z,14.86
2023-02-16T13:40:10.776Z,15.57
2023-02-16T13:43:08.956Z,15.80
2023-02-16T13:45:41.060Z,15.32
2023-02-16T13:48:24.555Z,14.57
2023-02-16T13:51:04.305Z,14.39
2023-02-16T13:53:38.293Z,14.36
2023-02-16T13:56:22.321Z,14.91
2023-02-16T13:58:51.683Z,14.99
2023-02-16T14:01:38.692Z,14.90
2023-02-16T14:04:12.830Z,14.66
2023-02-16T14:06:42.769Z,14.35
2023-02-16T14:09:12.407Z,14.45
2023-02-16T14:11:52.870Z,14.49
2023-02-16T14:14:44.021Z,14.37
2023-02-16T14:17:19.310Z,14.36
2023-02-16T14:19:49.983Z,14.13
2023-02-16T14:22:19.692Z,13.92
2023-02-16T14:24:55.998Z,13.83
2023-02-16T14:27:47.302Z,13.60
2023-02-16T14:30:30.702Z,13.61
2023-02-16T14:33:09.631Z,13.44
2023-02-16T14:35:38.345Z,13.39
2023-02-16T14:38:16.250Z,13.29
2023-02-16T14:40:52.575Z,13.28
2023-02-16T14:43:25.396Z,13.34
2023-02-16T14:46:28.424Z,13.40
2023-02-16T14:49:33.987Z,13.28
2023-02-16T14:52:41.820Z,13.27
2023-02-16T14:55:17.159Z,13.20
2023-02-16T14:57:53.200Z,13.13
2023-02-16T15:00:56.725Z,13.07
2023-02-16T15:03:25.454Z,13.01
2023-02-16T15:05:58.851Z,12.99
2023-02-16T15:08:36.003Z,12.89
2023-02-16T15:11:14.336Z,12.88
2023-02-16T15:13:42.824Z,12.86
2023-02-16T15:16:15.711Z,12.81
2023-02-16T15:18:44.650Z,12.80
2023-02-16T15:21:30.636Z,12.81
2023-02-16T15:24:00.366Z,12.83
2023-02-16T15:26:33.391Z,12.78
2023-02-16T15:29:21.319Z,12.67
2023-02-16T15:31:48.676Z,12.57
2023-02-16T15:34:28.407Z,12.50
2023-02-16T15:36:54.923Z,12.44
2023-02-16T15:39:40.888Z,12.42
2023-02-16T15:42:21.141Z,12.35
2023-02-16T15:44:48.621Z,12.27
2023-02-16T15:47:21.405Z,12.25
2023-02-16T15:49:48.589Z,12.21
2023-02-16T15:52:19.275Z,12.13
2023-02-16T15:54:47.018Z,12.13
2023-02-16T15:57:21.729Z,12.13
2023-02-16T15:59:51.248Z,12.10
2023-02-16T16:02:26.767Z,11.98
2023-02-16T16:04:58.742Z,11.99
2023-02-16T16:07:29.332Z,11.95
2023-02-16T16:09:57.674Z,11.85
2023-02-16T16:12:25.755Z,11.80
2023-02-16T16:14:57.971Z,11.72
2023-02-16T16:17:33.896Z,11.69
2023-02-16T16:20:25.866Z,11.61
2023-02-16T16:23:00.087Z,11.51
2023-02-16T16:25:35.548Z,11.34
2023-02-16T16:28:03.698Z,11.22
2023-02-16T16:30:33.098Z,11.21
2023-02-16T16:33:05.577Z,11.23
2023-02-16T16:35:39.924Z,11.04
2023-02-16T16:38:20.686Z,10.94
2023-02-16T16:41:01.232Z,10.87
2023-02-16T16:43:34.949Z,10.86
2023-02-16T16:46:23.416Z,10.87
2023-02-16T16:48:53.603Z,10.87
2023-02-16T16:51:33.660Z,10.77
2023-02-16T16:54:04.154Z,10.76
2023-02-16T16:56:34.986Z,10.73
2023-02-16T16:59:01.490Z,10.61
2023-02-16T17:01:29.422Z,10.53
2023-02-16T17:03:56.554Z,10.50
2023-02-16T17:06:24.421Z,10.46
2023-02-16T17:08:51.226Z,10.48
2023-02-16T17:11:28.840Z,10.50
2023-02-16T17:13:57.554Z,10.50
2023-02-16T17:16:31.357Z,10.39
2023-02-16T17:18:57.975Z,10.30
2023-02-16T17:21:24.435Z,10.21
2023-02-16T17:23:53.444Z,10.15
2023-02-16T17:26:21.316Z,10.09
2023-02-16T17:28:48.318Z,10.02
2023-02-16T17:31:14.925Z,9.98
2023-02-16T17:33:41.403Z,9.88
2023-02-16T17:36:08.720Z,9.79
2023-02-16T17:38:35.396Z,9.72
2023-02-16T17:41:01.846Z,9.63
2023-02-16T17:43:28.577Z,9.60
2023-02-16T17:45:56.779Z,9.55
2023-02-16T17:48:28.199Z,9.48
2023-02-16T17:50:55.035Z,9.43
2023-02-16T17:53:23.809Z,9.34
2023-02-16T17:55:53.085Z,9.32
2023-02-16T17:58:20.642Z,9.26
2023-02-16T18:00:47.488Z,9.19
2023-02-16T18:03:14.649Z,9.14
2023-02-16T18:05:41.300Z,9.11
2023-02-16T18:08:07.768Z,9.01
2023-02-16T18:10:37.661Z,8.97
2023-02-16T18:13:05.540Z,8.92
2023-02-16T18:15:33.144Z,8.79
2023-02-16T18:18:00.050Z,8.79
2023-02-16T18:20:26.751Z,8.69
2023-02-16T18:22:53.857Z,8.63
2023-02-16T18:25:20.674Z,8.66
2023-02-16T18:27:47.109Z,8.52
2023-02-16T18:30:14.607Z,8.46
2023-02-16T18:32:41.916Z,8.50
2023-02-16T18:35:10.785Z,8.45
2023-02-16T18:37:37.886Z,8.42
2023-02-16T18:40:06.455Z,8.40
2023-02-16T18:42:33.079Z,8.33
2023-02-16T18:44:59.555Z,8.23
2023-02-16T18:47:26.010Z,8.17
2023-02-16T18:49:52.844Z,8.24
2023-02-16T18:52:19.934Z,8.27
2023-02-16T18:54:46.429Z,8.25
2023-02-16T18:57:13.466Z,8.24
2023-02-16T18:59:39.922Z,8.23
2023-02-16T19:02:06.981Z,8.11
2023-02-16T19:04:33.835Z,8.11
2023-02-16T19:07:00.398Z,7.97
2023-02-16T19:09:26.912Z,7.82
2023-02-16T19:11:53.415Z,7.77
2023-02-16T19:14:20.089Z,7.70
2023-02-16T19:16:46.566Z,7.72
2023-02-16T19:19:13.233Z,7.71
2023-02-16T19:21:40.221Z,7.70
2023-02-16T19:24:07.874Z,7.62
2023-02-16T19:26:34.323Z,7.63
2023-02-16T19:29:00.845Z,7.64
2023-02-16T19:31:30.299Z,7.65
2023-02-16T19:33:59.316Z,7.66
2023-02-16T19:36:27.655Z,7.29
2023-02-16T19:38:54.157Z,7.21
2023-02-16T19:41:24.192Z,7.22
2023-02-16T19:43:50.868Z,7.27
2023-02-16T19:46:17.838Z,7.26
2023-02-16T19:48:46.025Z,7.11
2023-02-16T19:52:17.315Z,7.15
2023-02-16T19:54:43.845Z,7.21
2023-02-16T19:57:10.480Z,7.17
2023-02-16T19:59:37.034Z,6.99
2023-02-16T20:02:03.876Z,7.06
2023-02-16T20:04:30.282Z,6.91
2023-02-16T20:06:56.814Z,6.84
2023-02-16T20:09:24.354Z,6.83
2023-02-16T20:11:51.915Z,6.80
2023-02-16T20:14:18.407Z,6.78
2023-02-16T20:16:45.003Z,6.71
2023-02-16T20:19:11.613Z,6.75
2023-02-16T20:21:38.138Z,6.86
2023-02-16T20:24:05.791Z,6.92
2023-02-16T20:26:45.119Z,6.87
2023-02-16T20:29:13.930Z,6.84
2023-02-16T20:31:44.316Z,6.77
2023-02-16T20:34:10.975Z,6.76
2023-02-16T20:36:37.983Z,6.70
2023-02-16T20:39:06.657Z,6.74
2023-02-16T20:41:33.550Z,6.79
2023-02-16T20:44:00.094Z,6.75
2023-02-16T20:46:26.752Z,6.67
2023-02-16T20:48:53.980Z,6.69
2023-02-16T20:51:20.757Z,6.62
2023-02-16T20:53:48.455Z,6.71
2023-02-16T20:56:20.650Z,6.70
2023-02-16T20:58:49.432Z,6.51
2023-02-16T21:01:24.086Z,6.42
2023-02-16T21:03:51.507Z,6.35
2023-02-16T21:06:18.695Z,6.25
2023-02-16T21:08:45.198Z,6.21
2023-02-16T21:11:12.020Z,6.12
2023-02-16T21:13:39.131Z,6.10
2023-02-16T21:16:07.239Z,6.04
2023-02-16T21:18:34.493Z,5.94
2023-02-16T21:21:01.238Z,5.85
2023-02-16T21:23:28.430Z,5.83
2023-02-16T21:26:03.659Z,5.82
2023-02-16T21:28:30.477Z,5.79
2023-02-16T21:31:02.248Z,5.79
2023-02-16T21:33:28.770Z,5.74
2023-02-16T21:36:02.868Z,5.71
2023-02-16T21:38:29.450Z,5.64
2023-02-16T21:41:23.932Z,5.60
2023-02-16T21:44:14.964Z,5.61
2023-02-16T21:46:46.948Z,5.63
2023-02-16T21:49:16.301Z,5.65
2023-02-16T21:51:43.913Z,5.67
2023-02-16T21:54:14.312Z,5.65
2023-02-16T21:56:50.190Z,5.62
2023-02-16T21:59:18.880Z,5.54
2023-02-16T22:01:53.410Z,5.56
2023-02-16T22:04:21.889Z,5.48
2023-02-16T22:06:50.173Z,5.43
2023-02-16T22:09:21.901Z,5.46
2023-02-16T22:11:49.275Z,5.38
2023-02-16T22:14:16.379Z,5.39
2023-02-16T22:16:45.547Z,5.43
2023-02-16T22:19:14.195Z,5.38
2023-02-16T22:21:43.164Z,5.29
2023-02-16T22:24:12.908Z,5.25
2023-02-16T22:26:39.716Z,5.24
2023-02-16T22:29:07.608Z,5.22
2023-02-16T22:31:34.558Z,5.23
2023-02-16T22:34:03.786Z,5.18
2023-02-16T22:36:30.370Z,5.23
2023-02-16T22:38:57.234Z,5.25
2023-02-16T22:41:24.655Z,5.24
2023-02-16T22:43:55.765Z,5.28
2023-02-16T22:46:23.827Z,5.29
2023-02-16T22:48:50.891Z,5.32
2023-02-16T22:51:18.434Z,5.33
2023-02-16T22:53:45.152Z,5.47
2023-02-16T22:56:14.834Z,5.58
2023-02-16T22:58:41.617Z,5.83
2023-02-16T23:01:17.678Z,5.94
2023-02-16T23:03:47.409Z,6.08
2023-02-16T23:06:16.202Z,6.18
2023-02-16T23:08:43.415Z,6.17
2023-02-16T23:11:10.646Z,6.08
2023-02-16T23:13:37.401Z,6.03
2023-02-16T23:16:09.385Z,5.94
2023-02-16T23:18:36.145Z,5.94
2023-02-16T23:21:09.205Z,5.83
2023-02-16T23:23:36.447Z,5.75
2023-02-16T23:26:06.311Z,5.73
2023-02-16T23:28:34.505Z,5.71
2023-02-16T23:31:01.237Z,5.71
2023-02-16T23:33:27.746Z,5.69
2023-02-16T23:35:54.831Z,5.66
2023-02-16T23:38:21.510Z,5.60
2023-02-16T23:41:03.545Z,5.48
2023-02-16T23:43:30.753Z,5.49
2023-02-16T23:45:57.622Z,5.57
2023-02-16T23:48:24.105Z,5.59
2023-02-16T23:50:52.029Z,5.53
2023-02-16T23:53:20.128Z,5.46
2023-02-16T23:56:03.767Z,5.46
2023-02-16T23:58:34.053Z,5.48
